Fairbanks, AK

4:35 AM AKDT on October 21, 2014 (GMT -0800)
AKDOT 14th Avenue @ Eielson Street | Change Station
CLOSE
Current Station
Personal Weather Station
Location: Fairbanks, AK
Elevation: 482 ft
Nearby Weather Stations

Elev 482 ft 64.84 °N, 147.71 °W | Updated 42 minutes ago

Overcast
Overcast
29 °F
Feels Like 29 °F
N
1
Wind Variable Wind from SSE
Gusts 1.0 mph

Today
High -- | Low -- °F
--% Chance of Precip.
Yesterday
High -- | Low -- °F
Precip. -- in
9:03 AM 6:06 PM
Waning Crescent, 6% visible
Pressure 29.33 in
Visibility 10.0 miles
Clouds Overcast 12000 ft
Windchill 29 °F
Dew Point 23 °F
Humidity 77%
Rainfall -999.00 in
Snow Depth Not available.
UV 0 out of 12
Pollen Not available.
Air Quality Not available.
Flu Activity Sporadic
METAR PAFB 211156Z AUTO 00000KT 10SM OVC120 M01/M06 A2931 RMK SLP931 T10061056 10017 21006 51020 $ VIA AUTODIAL

More Conditions Fewer Conditions

Pressure 29.33 in
Visibility 10.0 miles
Clouds Overcast 12000 ft
Windchill 29 °F
Dew Point 23 °F
Humidity 77%
Rainfall -999.00 in
Snow Depth Not available.
UV 0 out of 12
Pollen Not available.
Air Quality Not available.
Flu Activity Sporadic
METAR PAFB 211156Z AUTO 00000KT 10SM OVC120 M01/M06 A2931 RMK SLP931 T10061056 10017 21006 51020 $ VIA AUTODIAL

More Conditions Fewer Conditions

10-Day Weather Forecast

Almanac

Astronomy

Oct. 21, 2014 Rise Set
Actual Time 9:03 AM AKDT 6:06 PM AKDT
Civil Twilight 8:11 AM AKDT 6:57 PM AKDT
Nautical Twilight 7:14 AM AKDT 7:54 PM AKDT
Astronomical Twilight 6:17 AM AKDT 8:51 PM AKDT
Moon 6:12 AM AKDT 5:40 PM AKDT
Length of Visible Light 10h 46m
Length of Day
9h 03m
Tomorrow will be 6m 43s shorter.
Waning Crescent, 6% of the Moon is Illuminated
Today
Waning Crescent
Oct 23
New
Oct 30
First Quarter
Nov 6
Full
Nov 14
Last Quarter

Today's Extremes

State Highs State Lows

Community

WunderPhotos

Upload Photos

1,763,647 photos uploaded!

Nearby

Snow Depth

Station Depth Elevation
Little Chena Ridge 5 in 2000 ft
Munson Ridge 11 in 3100 ft
Mt. Ryan 7 in 2800 ft
Monument Creek 5 in 1850 ft
Teuchet Creek 4 in 1640 ft

Earthquake Activity

City Distance Mag. Time & Date
No recent earthquake activity has been reported nearby.
Minimum magnitude displayed is 2.5.

Coastal Water Temperatures

Place Temperature
No Stations Reporting

Nearby Weather Stations